sensor_id;sensor_type;location;lat;lon;timestamp;temperature;humidity
28677;DHT22;15858;48.338;11.078;2024-01-10T00:02:21;-6.20;99.90
28677;DHT22;15858;48.338;11.078;2024-01-10T00:04:48;-6.20;99.90
28677;DHT22;15858;48.338;11.078;2024-01-10T00:07:15;-6.20;99.90
28677;DHT22;15858;48.338;11.078;2024-01-10T00:09:41;-6.10;99.90
28677;DHT22;15858;48.338;11.078;2024-01-10T00:12:08;-6.10;99.90
28677;DHT22;15858;48.338;11.078;2024-01-10T00:14:35;-6.10;99.90
28677;DHT22;15858;48.338;11.078;2024-01-10T00:17:02;-6.20;99.90
28677;DHT22;15858;48.338;11.078;2024-01-10T00:19:29;-6.20;99.90
28677;DHT22;15858;48.338;11.078;2024-01-10T00:21:55;-6.30;99.90
28677;DHT22;15858;48.338;11.078;2024-01-10T00:24:22;-6.30;99.90
28677;DHT22;15858;48.338;11.078;2024-01-10T00:26:49;-6.40;99.90
28677;DHT22;15858;48.338;11.078;2024-01-10T00:29:15;-6.40;99.90
28677;DHT22;15858;48.338;11.078;2024-01-10T00:31:42;-6.30;99.90
28677;DHT22;15858;48.338;11.078;2024-01-10T00:34:09;-6.30;99.90
28677;DHT22;15858;48.338;11.078;2024-01-10T00:36:36;-6.30;99.90
28677;DHT22;15858;48.338;11.078;2024-01-10T00:39:03;-6.30;99.90
28677;DHT22;15858;48.338;11.078;2024-01-10T00:41:32;-6.20;99.90
28677;DHT22;15858;48.338;11.078;2024-01-10T00:43:59;-6.10;99.90
28677;DHT22;15858;48.338;11.078;2024-01-10T00:46:26;-6.00;99.90
28677;DHT22;15858;48.338;11.078;2024-01-10T00:48:53;-5.90;99.90
28677;DHT22;15858;48.338;11.078;2024-01-10T00:51:19;-5.90;99.90
28677;DHT22;15858;48.338;11.078;2024-01-10T00:53:46;-5.80;99.90
28677;DHT22;15858;48.338;11.078;2024-01-10T00:56:13;-5.80;99.90
28677;DHT22;15858;48.338;11.078;2024-01-10T00:58:40;-5.80;99.90
28677;DHT22;15858;48.338;11.078;2024-01-10T01:01:06;-5.80;99.90
28677;DHT22;15858;48.338;11.078;2024-01-10T01:03:33;-5.80;99.90
28677;DHT22;15858;48.338;11.078;2024-01-10T01:06:00;-5.90;99.90
28677;DHT22;15858;48.338;11.078;2024-01-10T01:08:27;-6.00;99.90
28677;DHT22;15858;48.338;11.078;2024-01-10T01:10:54;-6.10;99.90
28677;DHT22;15858;48.338;11.078;2024-01-10T01:13:21;-6.20;99.90
28677;DHT22;15858;48.338;11.078;2024-01-10T01:15:47;-6.10;99.90
28677;DHT22;15858;48.338;11.078;2024-01-10T01:18:14;-6.00;99.90
28677;DHT22;15858;48.338;11.078;2024-01-10T01:20:41;-5.90;99.90
28677;DHT22;15858;48.338;11.078;2024-01-10T01:23:08;-5.80;99.90
28677;DHT22;15858;48.338;11.078;2024-01-10T01:25:35;-5.80;99.90
28677;DHT22;15858;48.338;11.078;2024-01-10T01:28:02;-5.80;99.90
28677;DHT22;15858;48.338;11.078;2024-01-10T01:30:28;-5.80;99.90
28677;DHT22;15858;48.338;11.078;2024-01-10T01:32:55;-5.90;99.90
28677;DHT22;15858;48.338;11.078;2024-01-10T01:35:22;-5.90;99.90
28677;DHT22;15858;48.338;11.078;2024-01-10T01:37:49;-5.90;99.90
28677;DHT22;15858;48.338;11.078;2024-01-10T01:40:18;-5.90;99.90
28677;DHT22;15858;48.338;11.078;2024-01-10T01:42:47;-5.90;99.90
28677;DHT22;15858;48.338;11.078;2024-01-10T01:45:14;-5.80;99.90
28677;DHT22;15858;48.338;11.078;2024-01-10T01:47:41;-5.80;99.90
28677;DHT22;15858;48.338;11.078;2024-01-10T01:50:08;-5.90;99.90
28677;DHT22;15858;48.338;11.078;2024-01-10T01:52:36;-5.90;99.90
28677;DHT22;15858;48.338;11.078;2024-01-10T01:55:03;-5.90;99.90
28677;DHT22;15858;48.338;11.078;2024-01-10T01:57:31;-5.90;99.90
28677;DHT22;15858;48.338;11.078;2024-01-10T01:59:58;-5.90;99.90
28677;DHT22;15858;48.338;11.078;2024-01-10T02:02:25;-5.90;99.90
28677;DHT22;15858;48.338;11.078;2024-01-10T02:04:52;-5.90;99.90
28677;DHT22;15858;48.338;11.078;2024-01-10T02:07:19;-6.10;99.90
28677;DHT22;15858;48.338;11.078;2024-01-10T02:09:46;-6.20;99.90
28677;DHT22;15858;48.338;11.078;2024-01-10T02:12:13;-6.20;99.90
28677;DHT22;15858;48.338;11.078;2024-01-10T02:14:39;-6.10;99.90
28677;DHT22;15858;48.338;11.078;2024-01-10T02:17:06;-6.10;99.90
28677;DHT22;15858;48.338;11.078;2024-01-10T02:19:33;-6.00;99.90
28677;DHT22;15858;48.338;11.078;2024-01-10T02:22:00;-6.00;99.90
28677;DHT22;15858;48.338;11.078;2024-01-10T02:24:26;-6.00;99.90
28677;DHT22;15858;48.338;11.078;2024-01-10T02:26:53;-6.10;99.90
28677;DHT22;15858;48.338;11.078;2024-01-10T02:29:20;-6.10;99.90
28677;DHT22;15858;48.338;11.078;2024-01-10T02:31:47;-6.00;99.90
28677;DHT22;15858;48.338;11.078;2024-01-10T02:34:13;-6.00;99.90
28677;DHT22;15858;48.338;11.078;2024-01-10T02:36:40;-6.00;99.90
28677;DHT22;15858;48.338;11.078;2024-01-10T02:39:07;-6.00;99.90
28677;DHT22;15858;48.338;11.078;2024-01-10T02:41:33;-6.00;99.90
28677;DHT22;15858;48.338;11.078;2024-01-10T02:44:00;-6.00;99.90
28677;DHT22;15858;48.338;11.078;2024-01-10T02:46:27;-6.10;99.90
28677;DHT22;15858;48.338;11.078;2024-01-10T02:48:54;-6.00;99.90
28677;DHT22;15858;48.338;11.078;2024-01-10T02:51:22;-6.00;99.90
28677;DHT22;15858;48.338;11.078;2024-01-10T02:53:48;-6.00;99.90
28677;DHT22;15858;48.338;11.078;2024-01-10T02:56:15;-6.00;99.90
28677;DHT22;15858;48.338;11.078;2024-01-10T02:58:42;-5.90;99.90
28677;DHT22;15858;48.338;11.078;2024-01-10T03:01:09;-5.90;99.90
28677;DHT22;15858;48.338;11.078;2024-01-10T03:03:36;-5.90;99.90
28677;DHT22;15858;48.338;11.078;2024-01-10T03:06:02;-6.00;99.90
28677;DHT22;15858;48.338;11.078;2024-01-10T03:08:29;-6.00;99.90
28677;DHT22;15858;48.338;11.078;2024-01-10T03:10:56;-6.10;99.90
28677;DHT22;15858;48.338;11.078;2024-01-10T03:13:23;-6.10;99.90
28677;DHT22;15858;48.338;11.078;2024-01-10T03:15:49;-6.10;99.90
28677;DHT22;15858;48.338;11.078;2024-01-10T03:18:16;-6.00;99.90
28677;DHT22;15858;48.338;11.078;2024-01-10T03:20:43;-5.90;99.90
28677;DHT22;15858;48.338;11.078;2024-01-10T03:23:10;-5.90;99.90
28677;DHT22;15858;48.338;11.078;2024-01-10T03:25:36;-5.90;99.90
28677;DHT22;15858;48.338;11.078;2024-01-10T03:28:03;-5.90;99.90
28677;DHT22;15858;48.338;11.078;2024-01-10T03:30:30;-5.90;99.90
28677;DHT22;15858;48.338;11.078;2024-01-10T03:32:57;-5.90;99.90
28677;DHT22;15858;48.338;11.078;2024-01-10T03:35:24;-5.90;99.90
28677;DHT22;15858;48.338;11.078;2024-01-10T03:37:50;-5.90;99.90
28677;DHT22;15858;48.338;11.078;2024-01-10T03:40:17;-5.90;99.90
28677;DHT22;15858;48.338;11.078;2024-01-10T03:42:44;-5.80;99.90
28677;DHT22;15858;48.338;11.078;2024-01-10T03:45:11;-5.80;99.90
28677;DHT22;15858;48.338;11.078;2024-01-10T03:47:37;-5.80;99.90
28677;DHT22;15858;48.338;11.078;2024-01-10T03:50:05;-5.70;99.90
28677;DHT22;15858;48.338;11.078;2024-01-10T03:52:31;-5.70;99.90
28677;DHT22;15858;48.338;11.078;2024-01-10T03:54:58;-5.70;99.90
28677;DHT22;15858;48.338;11.078;2024-01-10T03:57:25;-5.70;99.90
28677;DHT22;15858;48.338;11.078;2024-01-10T03:59:52;-5.70;99.90
28677;DHT22;15858;48.338;11.078;2024-01-10T04:02:19;-5.80;99.90
28677;DHT22;15858;48.338;11.078;2024-01-10T04:04:46;-5.70;99.90
28677;DHT22;15858;48.338;11.078;2024-01-10T04:07:13;-5.70;99.90
28677;DHT22;15858;48.338;11.078;2024-01-10T04:09:39;-5.60;99.90
28677;DHT22;15858;48.338;11.078;2024-01-10T04:12:07;-5.60;99.90
28677;DHT22;15858;48.338;11.078;2024-01-10T04:14:34;-5.60;99.90
28677;DHT22;15858;48.338;11.078;2024-01-10T04:17:01;-5.50;99.90
28677;DHT22;15858;48.338;11.078;2024-01-10T04:19:30;-5.50;99.90
28677;DHT22;15858;48.338;11.078;2024-01-10T04:21:57;-5.50;99.90
28677;DHT22;15858;48.338;11.078;2024-01-10T04:24:24;-5.40;99.90
28677;DHT22;15858;48.338;11.078;2024-01-10T04:26:51;-5.40;99.90
28677;DHT22;15858;48.338;11.078;2024-01-10T04:29:17;-5.40;99.90
28677;DHT22;15858;48.338;11.078;2024-01-10T04:31:44;-5.40;99.90
28677;DHT22;15858;48.338;11.078;2024-01-10T04:34:11;-5.30;99.90
28677;DHT22;15858;48.338;11.078;2024-01-10T04:36:38;-5.30;99.90
28677;DHT22;15858;48.338;11.078;2024-01-10T04:39:04;-5.30;99.90
28677;DHT22;15858;48.338;11.078;2024-01-10T04:41:31;-5.30;99.90
28677;DHT22;15858;48.338;11.078;2024-01-10T04:43:58;-5.20;99.90
28677;DHT22;15858;48.338;11.078;2024-01-10T04:46:25;-5.20;99.90
28677;DHT22;15858;48.338;11.078;2024-01-10T04:48:51;-5.20;99.90
28677;DHT22;15858;48.338;11.078;2024-01-10T04:51:18;-5.20;99.90
28677;DHT22;15858;48.338;11.078;2024-01-10T04:53:45;-5.10;99.90
28677;DHT22;15858;48.338;11.078;2024-01-10T04:56:11;-5.10;99.90
28677;DHT22;15858;48.338;11.078;2024-01-10T04:58:38;-5.20;99.90
28677;DHT22;15858;48.338;11.078;2024-01-10T05:01:05;-5.10;99.90
28677;DHT22;15858;48.338;11.078;2024-01-10T05:03:32;-5.10;99.90
28677;DHT22;15858;48.338;11.078;2024-01-10T05:05:58;-5.10;99.90
28677;DHT22;15858;48.338;11.078;2024-01-10T05:08:26;-5.10;99.90
28677;DHT22;15858;48.338;11.078;2024-01-10T05:10:53;-5.00;99.90
28677;DHT22;15858;48.338;11.078;2024-01-10T05:13:19;-5.00;99.90
28677;DHT22;15858;48.338;11.078;2024-01-10T05:15:46;-5.00;99.90
28677;DHT22;15858;48.338;11.078;2024-01-10T05:18:13;-5.20;99.90
28677;DHT22;15858;48.338;11.078;2024-01-10T05:20:40;-5.20;99.90
28677;DHT22;15858;48.338;11.078;2024-01-10T05:23:06;-5.20;99.90
28677;DHT22;15858;48.338;11.078;2024-01-10T05:25:33;-5.10;99.90
28677;DHT22;15858;48.338;11.078;2024-01-10T05:28:00;-5.10;99.90
28677;DHT22;15858;48.338;11.078;2024-01-10T05:30:27;-5.10;99.90
28677;DHT22;15858;48.338;11.078;2024-01-10T05:32:55;-5.10;99.90
28677;DHT22;15858;48.338;11.078;2024-01-10T05:35:22;-5.00;99.90
28677;DHT22;15858;48.338;11.078;2024-01-10T05:37:49;-5.00;99.90
28677;DHT22;15858;48.338;11.078;2024-01-10T05:40:15;-4.90;99.90
28677;DHT22;15858;48.338;11.078;2024-01-10T05:42:42;-4.90;99.90
28677;DHT22;15858;48.338;11.078;2024-01-10T05:45:09;-4.90;99.90
28677;DHT22;15858;48.338;11.078;2024-01-10T05:47:36;-4.90;99.90
28677;DHT22;15858;48.338;11.078;2024-01-10T05:50:03;-4.90;99.90
28677;DHT22;15858;48.338;11.078;2024-01-10T05:52:30;-4.90;99.90
28677;DHT22;15858;48.338;11.078;2024-01-10T05:54:57;-5.00;99.90
28677;DHT22;15858;48.338;11.078;2024-01-10T05:57:24;-5.00;99.90
28677;DHT22;15858;48.338;11.078;2024-01-10T05:59:51;-5.00;99.90
28677;DHT22;15858;48.338;11.078;2024-01-10T06:02:17;-4.90;99.90
28677;DHT22;15858;48.338;11.078;2024-01-10T06:04:44;-5.00;99.90
28677;DHT22;15858;48.338;11.078;2024-01-10T06:07:11;-5.00;99.90
28677;DHT22;15858;48.338;11.078;2024-01-10T06:09:38;-4.90;99.90
28677;DHT22;15858;48.338;11.078;2024-01-10T06:12:05;-4.90;99.90
28677;DHT22;15858;48.338;11.078;2024-01-10T06:14:32;-4.90;99.90
28677;DHT22;15858;48.338;11.078;2024-01-10T06:16:59;-4.80;99.90
28677;DHT22;15858;48.338;11.078;2024-01-10T06:19:25;-4.70;99.90
28677;DHT22;15858;48.338;11.078;2024-01-10T06:21:52;-4.70;99.90
28677;DHT22;15858;48.338;11.078;2024-01-10T06:24:19;-4.80;99.90
28677;DHT22;15858;48.338;11.078;2024-01-10T06:26:46;-4.70;99.90
28677;DHT22;15858;48.338;11.078;2024-01-10T06:29:12;-4.70;99.90
28677;DHT22;15858;48.338;11.078;2024-01-10T06:31:39;-4.70;99.90
28677;DHT22;15858;48.338;11.078;2024-01-10T06:34:06;-4.80;99.90
28677;DHT22;15858;48.338;11.078;2024-01-10T06:36:33;-4.70;99.90
28677;DHT22;15858;48.338;11.078;2024-01-10T06:38:59;-4.70;99.90
28677;DHT22;15858;48.338;11.078;2024-01-10T06:41:27;-4.80;99.90
28677;DHT22;15858;48.338;11.078;2024-01-10T06:43:54;-4.80;99.90
28677;DHT22;15858;48.338;11.078;2024-01-10T06:46:21;-4.90;99.90
28677;DHT22;15858;48.338;11.078;2024-01-10T06:48:47;-4.90;99.90
28677;DHT22;15858;48.338;11.078;2024-01-10T06:51:15;-4.90;99.90
28677;DHT22;15858;48.338;11.078;2024-01-10T06:53:42;-4.90;99.90
28677;DHT22;15858;48.338;11.078;2024-01-10T06:56:10;-4.90;99.90
28677;DHT22;15858;48.338;11.078;2024-01-10T06:58:38;-4.80;99.90
28677;DHT22;15858;48.338;11.078;2024-01-10T07:01:11;-4.90;99.90
28677;DHT22;15858;48.338;11.078;2024-01-10T07:03:38;-4.80;99.90
28677;DHT22;15858;48.338;11.078;2024-01-10T07:06:05;-4.80;99.90
28677;DHT22;15858;48.338;11.078;2024-01-10T07:08:32;-4.80;99.90
28677;DHT22;15858;48.338;11.078;2024-01-10T07:10:59;-4.70;99.90
28677;DHT22;15858;48.338;11.078;2024-01-10T07:13:26;-4.80;99.90
28677;DHT22;15858;48.338;11.078;2024-01-10T07:15:52;-4.70;99.90
28677;DHT22;15858;48.338;11.078;2024-01-10T07:18:19;-4.80;99.90
28677;DHT22;15858;48.338;11.078;2024-01-10T07:20:46;-4.70;99.90
28677;DHT22;15858;48.338;11.078;2024-01-10T07:23:13;-4.70;99.90
28677;DHT22;15858;48.338;11.078;2024-01-10T07:25:39;-4.80;99.90
28677;DHT22;15858;48.338;11.078;2024-01-10T07:28:06;-4.80;99.90
28677;DHT22;15858;48.338;11.078;2024-01-10T07:30:33;-4.70;99.90
28677;DHT22;15858;48.338;11.078;2024-01-10T07:33:00;-4.80;99.90
28677;DHT22;15858;48.338;11.078;2024-01-10T07:35:27;-4.70;99.90
28677;DHT22;15858;48.338;11.078;2024-01-10T07:37:54;-4.70;99.90
28677;DHT22;15858;48.338;11.078;2024-01-10T07:40:21;-4.70;99.90
28677;DHT22;15858;48.338;11.078;2024-01-10T07:42:48;-4.70;99.90
28677;DHT22;15858;48.338;11.078;2024-01-10T07:45:14;-4.80;99.90
28677;DHT22;15858;48.338;11.078;2024-01-10T07:47:41;-4.70;99.90
28677;DHT22;15858;48.338;11.078;2024-01-10T07:50:09;-4.70;99.90
28677;DHT22;15858;48.338;11.078;2024-01-10T07:52:36;-4.70;99.90
28677;DHT22;15858;48.338;11.078;2024-01-10T07:55:03;-4.70;99.90
28677;DHT22;15858;48.338;11.078;2024-01-10T07:57:31;-4.70;99.90
28677;DHT22;15858;48.338;11.078;2024-01-10T07:59:57;-4.70;99.90
28677;DHT22;15858;48.338;11.078;2024-01-10T08:02:24;-4.60;99.90
28677;DHT22;15858;48.338;11.078;2024-01-10T08:04:52;-4.60;99.90
28677;DHT22;15858;48.338;11.078;2024-01-10T08:07:19;-4.50;99.90
28677;DHT22;15858;48.338;11.078;2024-01-10T08:09:45;-4.60;99.90
28677;DHT22;15858;48.338;11.078;2024-01-10T08:12:12;-4.50;99.90
28677;DHT22;15858;48.338;11.078;2024-01-10T08:14:39;-4.50;99.90
28677;DHT22;15858;48.338;11.078;2024-01-10T08:17:06;-4.50;99.90
28677;DHT22;15858;48.338;11.078;2024-01-10T08:19:33;-4.50;99.90
28677;DHT22;15858;48.338;11.078;2024-01-10T08:22:00;-4.50;99.90
28677;DHT22;15858;48.338;11.078;2024-01-10T08:24:26;-4.40;99.90
28677;DHT22;15858;48.338;11.078;2024-01-10T08:26:53;-4.30;99.90
28677;DHT22;15858;48.338;11.078;2024-01-10T08:29:20;-4.30;99.90
28677;DHT22;15858;48.338;11.078;2024-01-10T08:31:48;-4.30;99.90
28677;DHT22;15858;48.338;11.078;2024-01-10T08:34:15;-4.30;99.90
28677;DHT22;15858;48.338;11.078;2024-01-10T08:36:41;-4.10;99.90
28677;DHT22;15858;48.338;11.078;2024-01-10T08:39:08;-4.10;99.90
28677;DHT22;15858;48.338;11.078;2024-01-10T08:41:35;-4.10;99.90
28677;DHT22;15858;48.338;11.078;2024-01-10T08:44:02;-4.20;99.90
28677;DHT22;15858;48.338;11.078;2024-01-10T08:46:29;-4.30;99.90
28677;DHT22;15858;48.338;11.078;2024-01-10T08:48:56;-4.20;99.90
28677;DHT22;15858;48.338;11.078;2024-01-10T08:51:22;-4.10;99.90
28677;DHT22;15858;48.338;11.078;2024-01-10T08:53:49;-4.10;99.90
28677;DHT22;15858;48.338;11.078;2024-01-10T08:56:16;-4.00;99.90
28677;DHT22;15858;48.338;11.078;2024-01-10T08:58:43;-3.90;99.90
28677;DHT22;15858;48.338;11.078;2024-01-10T09:01:10;-3.80;99.90
28677;DHT22;15858;48.338;11.078;2024-01-10T09:03:36;-3.90;99.90
28677;DHT22;15858;48.338;11.078;2024-01-10T09:06:04;-4.00;99.90
28677;DHT22;15858;48.338;11.078;2024-01-10T09:08:37;-4.00;99.90
28677;DHT22;15858;48.338;11.078;2024-01-10T09:11:04;-3.90;99.90
28677;DHT22;15858;48.338;11.078;2024-01-10T09:13:30;-3.90;99.90
28677;DHT22;15858;48.338;11.078;2024-01-10T09:15:57;-3.80;99.90
28677;DHT22;15858;48.338;11.078;2024-01-10T09:18:24;-3.80;99.90
28677;DHT22;15858;48.338;11.078;2024-01-10T09:20:51;-3.80;99.90
28677;DHT22;15858;48.338;11.078;2024-01-10T09:23:17;-3.80;99.90
28677;DHT22;15858;48.338;11.078;2024-01-10T09:25:44;-3.90;99.90
28677;DHT22;15858;48.338;11.078;2024-01-10T09:28:11;-3.80;99.90
28677;DHT22;15858;48.338;11.078;2024-01-10T09:30:38;-3.60;99.90
28677;DHT22;15858;48.338;11.078;2024-01-10T09:33:08;-3.70;99.90
28677;DHT22;15858;48.338;11.078;2024-01-10T09:35:34;-3.60;99.90
28677;DHT22;15858;48.338;11.078;2024-01-10T09:38:02;-3.50;99.90
28677;DHT22;15858;48.338;11.078;2024-01-10T09:40:28;-3.50;99.90
28677;DHT22;15858;48.338;11.078;2024-01-10T09:42:55;-3.60;99.90
28677;DHT22;15858;48.338;11.078;2024-01-10T09:45:22;-3.50;99.90
28677;DHT22;15858;48.338;11.078;2024-01-10T09:47:54;-3.50;99.90
28677;DHT22;15858;48.338;11.078;2024-01-10T09:50:21;-3.50;99.90
28677;DHT22;15858;48.338;11.078;2024-01-10T09:52:52;-3.40;99.90
28677;DHT22;15858;48.338;11.078;2024-01-10T09:55:23;-3.20;99.90
28677;DHT22;15858;48.338;11.078;2024-01-10T09:57:51;-3.30;99.90
28677;DHT22;15858;48.338;11.078;2024-01-10T10:00:18;-3.30;99.90
28677;DHT22;15858;48.338;11.078;2024-01-10T10:02:46;-3.20;99.90
28677;DHT22;15858;48.338;11.078;2024-01-10T10:05:14;-3.30;99.90
28677;DHT22;15858;48.338;11.078;2024-01-10T10:10:11;-3.30;99.90
28677;DHT22;15858;48.338;11.078;2024-01-10T10:12:47;-3.30;99.90
28677;DHT22;15858;48.338;11.078;2024-01-10T10:15:16;-3.20;99.90
28677;DHT22;15858;48.338;11.078;2024-01-10T10:17:47;-3.20;99.90
28677;DHT22;15858;48.338;11.078;2024-01-10T10:20:21;-3.20;99.90
28677;DHT22;15858;48.338;11.078;2024-01-10T10:23:08;-3.10;99.90
28677;DHT22;15858;48.338;11.078;2024-01-10T10:25:36;-3.10;99.90
28677;DHT22;15858;48.338;11.078;2024-01-10T10:28:04;-3.10;99.90
28677;DHT22;15858;48.338;11.078;2024-01-10T10:30:32;-3.20;99.90
28677;DHT22;15858;48.338;11.078;2024-01-10T10:33:00;-3.20;99.90
28677;DHT22;15858;48.338;11.078;2024-01-10T10:35:27;-3.10;99.90
28677;DHT22;15858;48.338;11.078;2024-01-10T10:38:07;-3.20;99.90
28677;DHT22;15858;48.338;11.078;2024-01-10T10:40:34;-3.00;99.90
28677;DHT22;15858;48.338;11.078;2024-01-10T10:43:03;-3.10;99.90
28677;DHT22;15858;48.338;11.078;2024-01-10T10:45:31;-3.10;99.90
28677;DHT22;15858;48.338;11.078;2024-01-10T10:48:01;-3.00;99.90
28677;DHT22;15858;48.338;11.078;2024-01-10T10:50:32;-3.10;99.90
28677;DHT22;15858;48.338;11.078;2024-01-10T10:53:02;-3.10;99.90
28677;DHT22;15858;48.338;11.078;2024-01-10T10:55:31;-3.00;99.90
28677;DHT22;15858;48.338;11.078;2024-01-10T10:58:00;-3.00;99.90
28677;DHT22;15858;48.338;11.078;2024-01-10T11:00:37;-2.70;99.90
28677;DHT22;15858;48.338;11.078;2024-01-10T11:03:04;-2.80;99.90
28677;DHT22;15858;48.338;11.078;2024-01-10T11:05:32;-2.70;99.90
28677;DHT22;15858;48.338;11.078;2024-01-10T11:08:02;-2.60;99.90
28677;DHT22;15858;48.338;11.078;2024-01-10T11:10:32;-2.60;99.90
28677;DHT22;15858;48.338;11.078;2024-01-10T11:13:23;-2.70;99.90
28677;DHT22;15858;48.338;11.078;2024-01-10T11:21:37;-2.50;99.90
28677;DHT22;15858;48.338;11.078;2024-01-10T11:24:08;-2.50;99.90
28677;DHT22;15858;48.338;11.078;2024-01-10T11:26:37;-2.50;99.90
28677;DHT22;15858;48.338;11.078;2024-01-10T11:29:07;-2.40;99.90
28677;DHT22;15858;48.338;11.078;2024-01-10T11:31:33;-2.20;99.90
28677;DHT22;15858;48.338;11.078;2024-01-10T11:34:01;-2.30;99.90
28677;DHT22;15858;48.338;11.078;2024-01-10T11:36:28;-2.20;99.90
28677;DHT22;15858;48.338;11.078;2024-01-10T11:38:58;-2.00;99.90
28677;DHT22;15858;48.338;11.078;2024-01-10T11:46:47;-1.90;99.90
28677;DHT22;15858;48.338;11.078;2024-01-10T11:49:18;-1.80;99.90
28677;DHT22;15858;48.338;11.078;2024-01-10T11:52:03;-1.70;99.90
28677;DHT22;15858;48.338;11.078;2024-01-10T11:54:41;-1.70;99.90
28677;DHT22;15858;48.338;11.078;2024-01-10T11:57:21;-1.60;99.90
28677;DHT22;15858;48.338;11.078;2024-01-10T11:59:53;-1.60;99.90
28677;DHT22;15858;48.338;11.078;2024-01-10T12:02:22;-1.50;99.90
28677;DHT22;15858;48.338;11.078;2024-01-10T12:04:49;-1.30;99.90
28677;DHT22;15858;48.338;11.078;2024-01-10T12:07:17;-1.20;99.90
28677;DHT22;15858;48.338;11.078;2024-01-10T12:09:46;-1.20;99.90
28677;DHT22;15858;48.338;11.078;2024-01-10T12:12:14;-1.30;99.90
28677;DHT22;15858;48.338;11.078;2024-01-10T12:14:41;-1.20;99.90
28677;DHT22;15858;48.338;11.078;2024-01-10T12:17:08;-1.30;99.90
28677;DHT22;15858;48.338;11.078;2024-01-10T12:19:36;-1.30;99.90
28677;DHT22;15858;48.338;11.078;2024-01-10T12:22:04;-1.50;99.90
28677;DHT22;15858;48.338;11.078;2024-01-10T12:24:33;-1.50;99.90
28677;DHT22;15858;48.338;11.078;2024-01-10T12:27:00;-1.60;99.90
28677;DHT22;15858;48.338;11.078;2024-01-10T12:29:27;-1.70;99.90
28677;DHT22;15858;48.338;11.078;2024-01-10T12:31:53;-1.70;99.90
28677;DHT22;15858;48.338;11.078;2024-01-10T12:34:20;-1.50;99.90
28677;DHT22;15858;48.338;11.078;2024-01-10T12:36:47;-1.40;99.90
28677;DHT22;15858;48.338;11.078;2024-01-10T12:39:14;-1.40;99.90
28677;DHT22;15858;48.338;11.078;2024-01-10T12:41:41;-1.50;99.90
28677;DHT22;15858;48.338;11.078;2024-01-10T12:44:09;-1.40;99.90
28677;DHT22;15858;48.338;11.078;2024-01-10T12:46:49;-1.50;99.90
28677;DHT22;15858;48.338;11.078;2024-01-10T12:49:16;-1.40;99.90
28677;DHT22;15858;48.338;11.078;2024-01-10T12:51:43;-1.50;99.90
28677;DHT22;15858;48.338;11.078;2024-01-10T12:54:09;-1.40;99.90
28677;DHT22;15858;48.338;11.078;2024-01-10T12:56:36;-1.40;99.90
28677;DHT22;15858;48.338;11.078;2024-01-10T12:59:03;-1.30;99.90
28677;DHT22;15858;48.338;11.078;2024-01-10T13:01:29;-1.30;99.90
28677;DHT22;15858;48.338;11.078;2024-01-10T13:03:56;-1.20;99.90
28677;DHT22;15858;48.338;11.078;2024-01-10T13:06:23;-1.30;99.90
28677;DHT22;15858;48.338;11.078;2024-01-10T13:08:50;-1.40;99.90
28677;DHT22;15858;48.338;11.078;2024-01-10T13:11:17;-1.40;99.90
28677;DHT22;15858;48.338;11.078;2024-01-10T13:13:44;-1.40;99.90
28677;DHT22;15858;48.338;11.078;2024-01-10T13:16:11;-1.40;99.90
28677;DHT22;15858;48.338;11.078;2024-01-10T13:18:38;-1.40;99.90
28677;DHT22;15858;48.338;11.078;2024-01-10T13:21:06;-1.30;99.90
28677;DHT22;15858;48.338;11.078;2024-01-10T13:23:33;-1.40;99.90
28677;DHT22;15858;48.338;11.078;2024-01-10T13:25:59;-1.30;99.90
28677;DHT22;15858;48.338;11.078;2024-01-10T13:28:26;-1.30;99.90
28677;DHT22;15858;48.338;11.078;2024-01-10T13:30:53;-1.40;99.90
28677;DHT22;15858;48.338;11.078;2024-01-10T13:33:20;-1.50;99.90
28677;DHT22;15858;48.338;11.078;2024-01-10T13:35:47;-1.50;99.90
28677;DHT22;15858;48.338;11.078;2024-01-10T13:38:14;-1.60;99.90
28677;DHT22;15858;48.338;11.078;2024-01-10T13:40:41;-1.60;99.90
28677;DHT22;15858;48.338;11.078;2024-01-10T13:43:08;-1.60;99.90
28677;DHT22;15858;48.338;11.078;2024-01-10T13:45:34;-1.60;99.90
28677;DHT22;15858;48.338;11.078;2024-01-10T13:48:01;-1.70;99.90
28677;DHT22;15858;48.338;11.078;2024-01-10T13:50:28;-1.80;99.90
28677;DHT22;15858;48.338;11.078;2024-01-10T13:52:55;-1.70;99.90
28677;DHT22;15858;48.338;11.078;2024-01-10T13:55:22;-1.80;99.90
28677;DHT22;15858;48.338;11.078;2024-01-10T13:57:49;-1.70;99.90
28677;DHT22;15858;48.338;11.078;2024-01-10T14:00:15;-1.60;99.90
28677;DHT22;15858;48.338;11.078;2024-01-10T14:02:42;-1.70;99.90
28677;DHT22;15858;48.338;11.078;2024-01-10T14:05:09;-1.80;99.90
28677;DHT22;15858;48.338;11.078;2024-01-10T14:07:36;-1.50;99.90
28677;DHT22;15858;48.338;11.078;2024-01-10T14:10:04;-1.50;99.90
28677;DHT22;15858;48.338;11.078;2024-01-10T14:12:32;-1.60;99.90
28677;DHT22;15858;48.338;11.078;2024-01-10T14:14:59;-1.60;99.90
28677;DHT22;15858;48.338;11.078;2024-01-10T14:17:28;-1.60;99.90
28677;DHT22;15858;48.338;11.078;2024-01-10T14:19:55;-1.60;99.90
28677;DHT22;15858;48.338;11.078;2024-01-10T14:22:22;-1.70;99.90
28677;DHT22;15858;48.338;11.078;2024-01-10T14:24:58;-1.90;99.90
28677;DHT22;15858;48.338;11.078;2024-01-10T14:27:28;-1.90;99.90
28677;DHT22;15858;48.338;11.078;2024-01-10T14:29:55;-1.90;99.90
28677;DHT22;15858;48.338;11.078;2024-01-10T14:32:22;-2.00;99.90
28677;DHT22;15858;48.338;11.078;2024-01-10T14:34:49;-1.90;99.90
28677;DHT22;15858;48.338;11.078;2024-01-10T14:37:17;-1.70;99.90
28677;DHT22;15858;48.338;11.078;2024-01-10T14:39:43;-1.80;99.90
28677;DHT22;15858;48.338;11.078;2024-01-10T14:42:10;-1.90;99.90
28677;DHT22;15858;48.338;11.078;2024-01-10T14:44:37;-1.80;99.90
28677;DHT22;15858;48.338;11.078;2024-01-10T14:47:04;-1.80;99.90
28677;DHT22;15858;48.338;11.078;2024-01-10T14:49:38;-1.80;99.90
28677;DHT22;15858;48.338;11.078;2024-01-10T14:52:05;-1.90;99.90
28677;DHT22;15858;48.338;11.078;2024-01-10T14:54:32;-1.90;99.90
28677;DHT22;15858;48.338;11.078;2024-01-10T14:56:59;-2.20;99.90
28677;DHT22;15858;48.338;11.078;2024-01-10T14:59:26;-2.40;99.90
28677;DHT22;15858;48.338;11.078;2024-01-10T15:02:10;-2.40;99.90
28677;DHT22;15858;48.338;11.078;2024-01-10T15:04:38;-2.30;99.90
28677;DHT22;15858;48.338;11.078;2024-01-10T15:07:05;-2.40;99.90
28677;DHT22;15858;48.338;11.078;2024-01-10T15:09:32;-2.40;99.90
28677;DHT22;15858;48.338;11.078;2024-01-10T15:11:59;-2.40;99.90
28677;DHT22;15858;48.338;11.078;2024-01-10T15:14:26;-2.50;99.90
28677;DHT22;15858;48.338;11.078;2024-01-10T15:16:53;-2.50;99.90
28677;DHT22;15858;48.338;11.078;2024-01-10T15:19:20;-2.50;99.90
28677;DHT22;15858;48.338;11.078;2024-01-10T15:21:47;-2.60;99.90
28677;DHT22;15858;48.338;11.078;2024-01-10T15:24:14;-2.60;99.90
28677;DHT22;15858;48.338;11.078;2024-01-10T15:26:42;-2.50;99.90
28677;DHT22;15858;48.338;11.078;2024-01-10T15:29:09;-2.50;99.90
28677;DHT22;15858;48.338;11.078;2024-01-10T15:31:36;-2.80;99.90